Time,TemperatureF,DewpointF,PressureIn,WindDirection,WindDirectionDegrees,WindSpeedMPH,WindSpeedGustMPH,Humidity,HourlyPrecipIn,Conditions,Clouds,dailyrainin,SoftwareType,DateUTC
2013-02-04 00:01:00,17.0,10.0,-100.00,NNW,335,0.0,2.0,75,-99.99,,,-99.99,,2013-02-04 07:01:00,
2013-02-04 00:11:00,16.0,9.0,-100.00,NNW,336,0.0,1.0,75,-99.99,,,-99.99,,2013-02-04 07:11:00,
2013-02-04 00:21:00,14.0,8.0,-100.00,East,85,3.0,4.0,75,-99.99,,,-99.99,,2013-02-04 07:21:00,
2013-02-04 00:31:00,15.0,9.0,-100.00,East,85,1.0,2.0,76,-99.99,,,-99.99,,2013-02-04 07:31:00,
2013-02-04 00:41:00,14.0,8.0,-100.00,East,85,2.0,2.0,76,-99.99,,,-99.99,,2013-02-04 07:41:00,
2013-02-04 00:51:00,14.0,8.0,-100.00,East,85,2.0,2.0,76,-99.99,,,-99.99,,2013-02-04 07:51:00,
2013-02-04 01:01:00,13.0,7.0,-100.00,East,83,2.0,3.0,77,-99.99,,,-99.99,,2013-02-04 08:01:00,
2013-02-04 01:11:00,13.0,7.0,-100.00,East,98,5.0,5.0,78,-99.99,,,-99.99,,2013-02-04 08:11:00,
2013-02-04 01:21:00,13.0,7.0,-100.00,East,98,5.0,5.0,78,-99.99,,,-99.99,,2013-02-04 08:21:00,
2013-02-04 01:31:00,12.0,7.0,-100.00,ESE,113,5.0,5.0,79,-99.99,,,-99.99,,2013-02-04 08:31:00,
2013-02-04 01:41:00,12.0,7.0,-100.00,ESE,113,5.0,5.0,79,-99.99,,,-99.99,,2013-02-04 08:41:00,
2013-02-04 01:52:00,13.0,8.0,-100.00,SE,133,3.0,5.0,79,-99.99,,,-99.99,,2013-02-04 08:52:00,
2013-02-04 02:01:00,13.0,8.0,-100.00,SE,133,3.0,5.0,79,-99.99,,,-99.99,,2013-02-04 09:01:00,
2013-02-04 02:11:00,11.0,6.0,-100.00,ENE,72,4.0,5.0,79,-99.99,,,-99.99,,2013-02-04 09:11:00,
2013-02-04 02:21:00,11.0,6.0,-100.00,ENE,72,4.0,5.0,79,-99.99,,,-99.99,,2013-02-04 09:21:00,
2013-02-04 02:31:00,10.0,5.0,-100.00,East,81,4.0,5.0,79,-99.99,,,-99.99,,2013-02-04 09:31:00,
2013-02-04 02:41:00,10.0,5.0,-100.00,East,81,4.0,5.0,79,-99.99,,,-99.99,,2013-02-04 09:41:00,
2013-02-04 02:51:00,10.0,5.0,-100.00,East,84,3.0,5.0,81,-99.99,,,-99.99,,2013-02-04 09:51:00,
2013-02-04 03:01:00,10.0,5.0,-100.00,ENE,68,4.0,4.0,80,-99.99,,,-99.99,,2013-02-04 10:01:00,
2013-02-04 03:11:00,11.0,7.0,-100.00,ENE,61,3.0,4.0,82,-99.99,,,-99.99,,2013-02-04 10:11:00,
2013-02-04 03:21:00,11.0,7.0,-100.00,ENE,61,3.0,4.0,82,-99.99,,,-99.99,,2013-02-04 10:21:00,
2013-02-04 03:32:00,12.0,7.0,-100.00,East,84,1.0,4.0,81,-99.99,,,-99.99,,2013-02-04 10:32:00,
2013-02-04 03:41:00,12.0,8.0,-100.00,East,84,2.0,2.0,80,-99.99,,,-99.99,,2013-02-04 10:41:00,
2013-02-04 03:51:00,12.0,8.0,-100.00,East,84,2.0,2.0,80,-99.99,,,-99.99,,2013-02-04 10:51:00,
2013-02-04 04:01:00,9.0,5.0,-100.00,NE,51,2.0,4.0,81,-99.99,,,-99.99,,2013-02-04 11:01:00,
2013-02-04 04:11:00,10.0,5.0,-100.00,NE,51,1.0,2.0,81,-99.99,,,-99.99,,2013-02-04 11:11:00,
2013-02-04 04:22:00,10.0,5.0,-100.00,NE,51,1.0,2.0,81,-99.99,,,-99.99,,2013-02-04 11:22:00,
2013-02-04 04:32:00,8.0,4.0,-100.00,East,93,4.0,4.0,82,-99.99,,,-99.99,,2013-02-04 11:32:00,
2013-02-04 04:41:00,8.0,4.0,-100.00,ENE,76,3.0,5.0,81,-99.99,,,-99.99,,2013-02-04 11:41:00,
2013-02-04 04:52:00,8.0,4.0,-100.00,ENE,76,3.0,5.0,81,-99.99,,,-99.99,,2013-02-04 11:52:00,
2013-02-04 05:02:00,9.0,5.0,-100.00,NE,42,1.0,4.0,83,-99.99,,,-99.99,,2013-02-04 12:02:00,
2013-02-04 05:12:00,9.0,4.0,-100.00,NE,42,3.0,3.0,82,-99.99,,,-99.99,,2013-02-04 12:12:00,
2013-02-04 05:21:00,9.0,4.0,-100.00,NE,42,3.0,3.0,82,-99.99,,,-99.99,,2013-02-04 12:21:00,
2013-02-04 05:32:00,8.0,4.0,-100.00,NE,42,2.0,3.0,83,-99.99,,,-99.99,,2013-02-04 12:32:00,
2013-02-04 05:41:00,9.0,5.0,-100.00,NE,42,1.0,2.0,83,-99.99,,,-99.99,,2013-02-04 12:41:00,
2013-02-04 05:52:00,9.0,5.0,-100.00,NE,42,1.0,2.0,83,-99.99,,,-99.99,,2013-02-04 12:52:00,
2013-02-04 06:02:00,8.0,4.0,-100.00,East,100,4.0,5.0,84,-99.99,,,-99.99,,2013-02-04 13:02:00,
2013-02-04 06:11:00,9.0,5.0,-100.00,ESE,102,3.0,4.0,83,-99.99,,,-99.99,,2013-02-04 13:11:00,
2013-02-04 06:21:00,9.0,5.0,-100.00,ESE,102,3.0,4.0,83,-99.99,,,-99.99,,2013-02-04 13:21:00,
2013-02-04 06:32:00,8.0,4.0,-100.00,East,80,4.0,4.0,83,-99.99,,,-99.99,,2013-02-04 13:32:00,
2013-02-04 06:41:00,9.0,5.0,-100.00,SE,140,2.0,4.0,83,-99.99,,,-99.99,,2013-02-04 13:41:00,
2013-02-04 06:51:00,9.0,5.0,-100.00,SE,140,2.0,4.0,83,-99.99,,,-99.99,,2013-02-04 13:51:00,
2013-02-04 07:02:00,8.0,4.0,-100.00,East,87,1.0,5.0,82,-99.99,,,-99.99,,2013-02-04 14:02:00,
2013-02-04 07:11:00,8.0,4.0,-100.00,East,85,2.0,4.0,83,-99.99,,,-99.99,,2013-02-04 14:11:00,
2013-02-04 07:21:00,8.0,4.0,-100.00,East,83,2.0,4.0,84,-99.99,,,-99.99,,2013-02-04 14:21:00,
2013-02-04 07:32:00,10.0,6.0,-100.00,ESE,120,2.0,4.0,84,-99.99,,,-99.99,,2013-02-04 14:32:00,
2013-02-04 07:41:00,7.0,3.0,-100.00,ENE,58,4.0,6.0,83,-99.99,,,-99.99,,2013-02-04 14:41:00,
2013-02-04 07:52:00,7.0,3.0,-100.00,ENE,58,4.0,6.0,83,-99.99,,,-99.99,,2013-02-04 14:52:00,
2013-02-04 08:03:00,7.0,3.0,-100.00,ENE,68,2.0,7.0,82,-99.99,,,-99.99,,2013-02-04 15:03:00,
2013-02-04 08:22:00,7.0,3.0,-100.00,East,82,4.0,5.0,83,-99.99,,,-99.99,,2013-02-04 15:22:00,
2013-02-04 08:33:00,9.0,5.0,-100.00,East,92,4.0,6.0,84,-99.99,,,-99.99,,2013-02-04 15:33:00,
2013-02-04 08:43:00,10.0,6.0,-100.00,East,92,3.0,6.0,83,-99.99,,,-99.99,,2013-02-04 15:43:00,
2013-02-04 08:50:00,13.0,8.0,-100.00,ENE,74,3.0,5.0,79,-99.99,,,-99.99,,2013-02-04 15:50:00,
2013-02-04 08:52:00,10.0,6.0,-100.00,East,92,3.0,6.0,83,-99.99,,,-99.99,,2013-02-04 15:52:00,
2013-02-04 09:02:00,12.0,7.0,-100.00,East,80,3.0,4.0,80,-99.99,,,-99.99,,2013-02-04 16:02:00,
2013-02-04 09:11:00,13.0,8.0,-100.00,ENE,74,3.0,5.0,79,-99.99,,,-99.99,,2013-02-04 16:11:00,
2013-02-04 09:21:00,13.0,8.0,-100.00,ENE,74,3.0,5.0,79,-99.99,,,-99.99,,2013-02-04 16:21:00,
2013-02-04 09:32:00,13.0,8.0,-100.00,ENE,74,3.0,5.0,79,-99.99,,,-99.99,,2013-02-04 16:32:00,
2013-02-04 09:42:00,13.0,8.0,-100.00,ENE,74,3.0,5.0,79,-99.99,,,-99.99,,2013-02-04 16:42:00,
2013-02-04 10:42:00,23.0,14.0,-100.00,ESE,107,4.0,7.0,68,-99.99,,,-99.99,,2013-02-04 17:42:00,
2013-02-04 10:52:00,24.0,15.0,-100.00,ESE,103,4.0,6.0,67,-99.99,,,-99.99,,2013-02-04 17:52:00,
2013-02-04 11:03:00,24.0,15.0,-100.00,ESE,103,4.0,6.0,67,-99.99,,,-99.99,,2013-02-04 18:03:00,
2013-02-04 11:11:00,28.0,15.0,-100.00,East,92,5.0,7.0,58,-99.99,,,-99.99,,2013-02-04 18:11:00,
2013-02-04 11:21:00,28.0,15.0,-100.00,East,92,5.0,7.0,58,-99.99,,,-99.99,,2013-02-04 18:21:00,
2013-02-04 11:31:00,32.0,16.0,-100.00,SE,125,2.0,4.0,49,-99.99,,,-99.99,,2013-02-04 18:31:00,
2013-02-04 11:41:00,33.0,16.0,-100.00,ESE,106,3.0,4.0,49,-99.99,,,-99.99,,2013-02-04 18:41:00,
2013-02-04 11:52:00,33.0,16.0,-100.00,ESE,106,3.0,4.0,49,-99.99,,,-99.99,,2013-02-04 18:52:00,
2013-02-04 12:01:00,36.0,16.0,-100.00,SSE,162,1.0,5.0,44,-99.99,,,-99.99,,2013-02-04 19:01:00,
2013-02-04 12:11:00,36.0,15.0,-100.00,ESE,102,2.0,3.0,42,-99.99,,,-99.99,,2013-02-04 19:11:00,
2013-02-04 12:21:00,36.0,15.0,-100.00,ESE,102,2.0,3.0,42,-99.99,,,-99.99,,2013-02-04 19:21:00,
2013-02-04 12:41:00,34.0,16.0,-100.00,East,91,4.0,7.0,45,-99.99,,,-99.99,,2013-02-04 19:41:00,
2013-02-04 12:51:00,34.0,16.0,-100.00,East,91,4.0,7.0,45,-99.99,,,-99.99,,2013-02-04 19:51:00,
2013-02-04 13:02:00,38.0,17.0,-100.00,ENE,61,1.0,6.0,42,-99.99,,,-99.99,,2013-02-04 20:02:00,
2013-02-04 13:21:00,38.0,17.0,-100.00,WNW,298,12.0,15.0,42,-99.99,,,-99.99,,2013-02-04 20:21:00,
2013-02-04 13:32:00,38.0,17.0,-100.00,WNW,298,12.0,15.0,42,-99.99,,,-99.99,,2013-02-04 20:32:00,
2013-02-04 13:42:00,38.0,17.0,-100.00,WNW,298,12.0,15.0,42,-99.99,,,-99.99,,2013-02-04 20:42:00,
2013-02-04 13:52:00,36.0,16.0,-100.00,WNW,298,13.0,20.0,42,-99.99,,,-99.99,,2013-02-04 20:52:00,
2013-02-04 14:02:00,38.0,17.0,-100.00,WNW,286,9.0,18.0,42,-99.99,,,-99.99,,2013-02-04 21:02:00,
2013-02-04 14:11:00,38.0,17.0,-100.00,WNW,286,9.0,18.0,42,-99.99,,,-99.99,,2013-02-04 21:11:00,
2013-02-04 14:22:00,38.0,17.0,-100.00,WNW,286,9.0,18.0,42,-99.99,,,-99.99,,2013-02-04 21:22:00,
2013-02-04 14:31:00,37.0,15.0,-100.00,WNW,288,11.0,20.0,39,-99.99,,,-99.99,,2013-02-04 21:31:00,
2013-02-04 14:42:00,38.0,14.0,-100.00,WNW,302,12.0,16.0,37,-99.99,,,-99.99,,2013-02-04 21:42:00,
2013-02-04 14:51:00,38.0,14.0,-100.00,WNW,302,12.0,16.0,37,-99.99,,,-99.99,,2013-02-04 21:51:00,
2013-02-04 15:02:00,38.0,14.0,-100.00,NW,308,13.0,17.0,37,-99.99,,,-99.99,,2013-02-04 22:02:00,
2013-02-04 15:11:00,38.0,15.0,-100.00,NW,312,13.0,20.0,38,-99.99,,,-99.99,,2013-02-04 22:11:00,
2013-02-04 15:21:00,38.0,15.0,-100.00,NW,312,13.0,20.0,38,-99.99,,,-99.99,,2013-02-04 22:21:00,
2013-02-04 15:32:00,38.0,13.0,-100.00,WNW,293,19.0,22.0,35,-99.99,,,-99.99,,2013-02-04 22:32:00,
2013-02-04 15:41:00,38.0,14.0,-100.00,WNW,295,16.0,20.0,36,-99.99,,,-99.99,,2013-02-04 22:41:00,
2013-02-04 15:51:00,38.0,14.0,-100.00,WNW,295,16.0,20.0,36,-99.99,,,-99.99,,2013-02-04 22:51:00,
2013-02-04 16:01:00,39.0,15.0,-100.00,WNW,293,11.0,18.0,37,-99.99,,,-99.99,,2013-02-04 23:01:00,
2013-02-04 16:11:00,38.0,15.0,-100.00,WNW,287,15.0,19.0,37,-99.99,,,-99.99,,2013-02-04 23:11:00,
2013-02-04 16:21:00,38.0,15.0,-100.00,WNW,287,15.0,19.0,37,-99.99,,,-99.99,,2013-02-04 23:21:00,
2013-02-04 16:32:00,38.0,14.0,-100.00,WNW,287,14.0,17.0,37,-99.99,,,-99.99,,2013-02-04 23:32:00,
2013-02-04 16:41:00,37.0,14.0,-100.00,WNW,282,13.0,18.0,38,-99.99,,,-99.99,,2013-02-04 23:41:00,
2013-02-04 16:52:00,37.0,14.0,-100.00,WNW,282,13.0,18.0,38,-99.99,,,-99.99,,2013-02-04 23:52:00,
2013-02-04 17:01:00,38.0,13.0,-100.00,WNW,294,10.0,14.0,36,-99.99,,,-99.99,,2013-02-05 00:01:00,
2013-02-04 17:11:00,38.0,14.0,-100.00,NW,323,3.0,12.0,37,-99.99,,,-99.99,,2013-02-05 00:11:00,
2013-02-04 17:21:00,38.0,14.0,-100.00,NW,323,3.0,12.0,37,-99.99,,,-99.99,,2013-02-05 00:21:00,
2013-02-04 17:31:00,38.0,13.0,-100.00,WNW,295,5.0,7.0,35,-99.99,,,-99.99,,2013-02-05 00:31:00,
2013-02-04 17:41:00,37.0,13.0,-100.00,WNW,294,8.0,9.0,37,-99.99,,,-99.99,,2013-02-05 00:41:00,
2013-02-04 17:51:00,37.0,13.0,-100.00,WNW,294,8.0,9.0,37,-99.99,,,-99.99,,2013-02-05 00:51:00,
2013-02-04 18:01:00,35.0,15.0,-100.00,WNW,286,10.0,11.0,43,-99.99,,,-99.99,,2013-02-05 01:01:00,
2013-02-04 18:11:00,35.0,14.0,-100.00,WNW,298,11.0,12.0,43,-99.99,,,-99.99,,2013-02-05 01:11:00,
2013-02-04 18:21:00,35.0,14.0,-100.00,WNW,298,11.0,12.0,43,-99.99,,,-99.99,,2013-02-05 01:21:00,
2013-02-04 18:32:00,34.0,15.0,-100.00,WNW,299,10.0,14.0,45,-99.99,,,-99.99,,2013-02-05 01:32:00,
2013-02-04 18:42:00,34.0,15.0,-100.00,WNW,300,8.0,13.0,46,-99.99,,,-99.99,,2013-02-05 01:42:00,
2013-02-04 18:51:00,34.0,15.0,-100.00,WNW,300,8.0,13.0,46,-99.99,,,-99.99,,2013-02-05 01:51:00,
2013-02-04 19:01:00,33.0,14.0,-100.00,SSW,193,6.0,8.0,44,-99.99,,,-99.99,,2013-02-05 02:01:00,
2013-02-04 19:11:00,33.0,14.0,-100.00,SSW,193,6.0,8.0,44,-99.99,,,-99.99,,2013-02-05 02:11:00,
2013-02-04 19:21:00,33.0,14.0,-100.00,WSW,244,1.0,7.0,43,-99.99,,,-99.99,,2013-02-05 02:21:00,
2013-02-04 19:31:00,30.0,15.0,-100.00,East,93,3.0,5.0,53,-99.99,,,-99.99,,2013-02-05 02:31:00,
2013-02-04 19:41:00,29.0,15.0,-100.00,ENE,67,0.0,2.0,53,-99.99,,,-99.99,,2013-02-05 02:41:00,
2013-02-04 19:52:00,29.0,15.0,-100.00,ENE,67,0.0,2.0,53,-99.99,,,-99.99,,2013-02-05 02:52:00,
2013-02-04 20:01:00,29.0,15.0,-100.00,SE,126,1.0,4.0,56,-99.99,,,-99.99,,2013-02-05 03:01:00,
2013-02-04 20:11:00,28.0,15.0,-100.00,North,0,0.0,2.0,59,-99.99,,,-99.99,,2013-02-05 03:11:00,
2013-02-04 20:21:00,28.0,15.0,-100.00,North,0,0.0,2.0,59,-99.99,,,-99.99,,2013-02-05 03:21:00,
2013-02-04 20:31:00,26.0,15.0,-100.00,ESE,119,0.0,1.0,64,-99.99,,,-99.99,,2013-02-05 03:31:00,
2013-02-04 20:41:00,26.0,15.0,-100.00,ESE,119,0.0,1.0,64,-99.99,,,-99.99,,2013-02-05 03:41:00,
2013-02-04 20:51:00,26.0,15.0,-100.00,West,266,4.0,5.0,63,-99.99,,,-99.99,,2013-02-05 03:51:00,
2013-02-04 21:01:00,23.0,14.0,-100.00,NE,35,3.0,6.0,67,-99.99,,,-99.99,,2013-02-05 04:01:00,
2013-02-04 21:11:00,23.0,14.0,-100.00,NE,35,3.0,6.0,67,-99.99,,,-99.99,,2013-02-05 04:11:00,
2013-02-04 21:21:00,23.0,14.0,-100.00,NE,35,3.0,6.0,67,-99.99,,,-99.99,,2013-02-05 04:21:00,
2013-02-04 21:31:00,22.0,13.0,-100.00,NE,35,1.0,2.0,68,-99.99,,,-99.99,,2013-02-05 04:31:00,
2013-02-04 21:41:00,23.0,14.0,-100.00,East,101,3.0,4.0,68,-99.99,,,-99.99,,2013-02-05 04:41:00,
2013-02-04 21:52:00,20.0,12.0,-100.00,ENE,67,5.0,5.0,71,-99.99,,,-99.99,,2013-02-05 04:52:00,
2013-02-04 22:01:00,20.0,12.0,-100.00,ENE,67,5.0,5.0,71,-99.99,,,-99.99,,2013-02-05 05:01:00,
2013-02-04 22:11:00,21.0,14.0,-100.00,East,81,1.0,2.0,73,-99.99,,,-99.99,,2013-02-05 05:11:00,
2013-02-04 22:21:00,22.0,14.0,-100.00,ESE,103,1.0,3.0,70,-99.99,,,-99.99,,2013-02-05 05:21:00,
2013-02-04 22:31:00,22.0,14.0,-100.00,ESE,103,1.0,3.0,70,-99.99,,,-99.99,,2013-02-05 05:31:00,
2013-02-04 22:42:00,18.0,12.0,-100.00,East,100,3.0,5.0,74,-99.99,,,-99.99,,2013-02-05 05:42:00,
2013-02-04 22:52:00,18.0,12.0,-100.00,East,100,3.0,5.0,74,-99.99,,,-99.99,,2013-02-05 05:52:00,
2013-02-04 23:01:00,19.0,12.0,-100.00,ESE,102,1.0,3.0,73,-99.99,,,-99.99,,2013-02-05 06:01:00,
2013-02-04 23:11:00,18.0,12.0,-100.00,ESE,107,3.0,4.0,74,-99.99,,,-99.99,,2013-02-05 06:11:00,
2013-02-04 23:21:00,18.0,12.0,-100.00,ESE,107,3.0,4.0,74,-99.99,,,-99.99,,2013-02-05 06:21:00,
2013-02-04 23:31:00,19.0,13.0,-100.00,SE,137,3.0,4.0,75,-99.99,,,-99.99,,2013-02-05 06:31:00,
2013-02-04 23:41:00,19.0,13.0,-100.00,SE,137,3.0,4.0,75,-99.99,,,-99.99,,2013-02-05 06:41:00,
2013-02-04 23:51:00,16.0,10.0,-100.00,ENE,60,4.0,4.0,75,-99.99,,,-99.99,,2013-02-05 06:51:00,